.
WxDataArchive / Data Records for 2007-10-15
2007-10-14 October 2007 2007-10-16

Data Records for Monday, 15 October 2007

Time	Temp	Chill	HIndex	Humid	Dewpt	 Wind 	HiWind	WindDir	Rain 	Barom 
-----	----	-----	------	-----	-----	------	------	-------	-----	----- 
00:00	51.4	51.4	51.4	80	45.4	0	2	90	0.00	30.063 
00:05	51.3	51.3	51.3	80	45.3	0	2	90	0.00	30.062 
00:10	51.3	51.3	51.3	80	45.3	0	2	90	0.00	30.062 
00:15	51.3	51.3	51.3	80	45.3	0	2	90	0.00	30.061 
00:20	51.3	51.3	51.3	80	45.3	0	1	90	0.00	30.061 
00:25	51.4	51.4	51.4	80	45.4	0	2	90	0.00	30.060 
00:30	51.4	51.4	51.4	80	45.4	0	2	90	0.00	30.060 
00:35	51.4	51.4	51.4	80	45.4	0	2	90	0.00	30.057 
00:40	51.3	51.3	51.3	80	45.3	0	1	90	0.00	30.059 
00:45	51.1	51.1	51.1	81	45.5	0	1	90	0.00	30.056 
00:50	51.0	51.0	51.0	81	45.4	0	1	90	0.00	30.051 
00:55	51.0	51.0	51.0	81	45.4	0	1	90	0.00	30.050 
01:00	50.8	50.8	50.8	82	45.5	0	1	90	0.00	30.052 
01:05	50.7	50.7	50.7	82	45.4	0	0	---	0.00	30.054 
01:10	50.4	50.4	50.4	82	45.1	0	0	---	0.00	30.056 
01:15	50.2	50.2	50.2	83	45.2	0	0	---	0.00	30.056 
01:20	50.1	50.1	50.1	83	45.1	0	0	---	0.00	30.054 
01:25	49.9	49.9	49.9	84	45.3	0	1	90	0.00	30.056 
01:30	49.6	49.6	49.6	84	45.0	0	0	---	0.00	30.054 
01:35	49.5	49.5	49.5	84	44.9	0	0	---	0.00	30.053 
01:40	49.4	49.4	49.4	85	45.1	0	0	---	0.00	30.054 
01:45	49.4	49.4	49.4	85	45.1	0	1	90	0.00	30.053 
01:50	49.4	49.4	49.4	85	45.1	0	0	---	0.00	30.053 
01:55	49.4	49.4	49.4	86	45.4	0	1	90	0.00	30.055 
02:00	49.4	49.4	49.4	86	45.4	0	1	90	0.00	30.058 
02:05	49.2	49.2	49.2	86	45.2	0	0	---	0.00	30.058 
02:10	49.1	49.1	49.1	86	45.1	0	0	---	0.00	30.053 
02:15	48.8	48.8	48.8	86	44.8	0	0	---	0.00	30.051 
02:20	48.6	48.6	48.6	87	44.9	0	0	---	0.00	30.051 
02:25	48.5	48.5	48.5	88	45.1	0	0	---	0.00	30.050 
02:30	48.3	48.3	48.3	88	44.9	0	0	---	0.00	30.050 
02:35	48.2	48.2	48.2	88	44.8	0	0	---	0.00	30.050 
02:40	48.2	48.2	48.2	88	44.8	0	0	---	0.00	30.049 
02:45	48.0	48.0	48.0	89	44.9	0	0	---	0.00	30.048 
02:50	48.0	48.0	48.0	90	45.2	0	0	---	0.00	30.047 
02:55	48.2	48.2	48.2	90	45.4	0	0	---	0.00	30.045 
03:00	48.2	48.2	48.2	90	45.4	0	0	---	0.00	30.046 
03:05	48.2	48.2	48.2	90	45.4	0	0	---	0.00	30.047 
03:10	48.2	48.2	48.2	90	45.4	0	1	90	0.00	30.045 
03:15	48.2	48.2	48.2	90	45.4	0	0	---	0.00	30.045 
03:20	48.3	48.3	48.3	90	45.5	0	1	90	0.00	30.046 
03:25	48.5	48.5	48.5	90	45.7	0	1	90	0.00	30.045 
03:30	48.6	48.6	48.6	90	45.8	0	1	90	0.00	30.042 
03:35	48.6	48.6	48.6	89	45.5	0	2	90	0.00	30.045 
03:40	48.8	48.8	48.8	89	45.7	0	2	90	0.00	30.046 
03:45	48.9	48.9	48.9	88	45.5	0	1	90	0.00	30.048 
03:50	48.9	48.9	48.9	88	45.5	0	1	90	0.00	30.048 
03:55	48.9	48.9	48.9	88	45.5	0	0	---	0.00	30.049 
04:00	48.9	48.9	48.9	88	45.5	0	0	---	0.00	30.049 
04:05	48.9	48.9	48.9	88	45.5	0	2	90	0.00	30.049 
04:10	48.9	48.9	48.9	88	45.5	0	1	90	0.00	30.048 
04:15	48.8	48.8	48.8	88	45.4	0	1	90	0.00	30.049 
04:20	48.8	48.8	48.8	88	45.4	0	0	---	0.00	30.049 
04:25	48.6	48.6	48.6	88	45.2	0	1	90	0.00	30.050 
04:30	48.6	48.6	48.6	88	45.2	0	1	90	0.00	30.049 
04:35	48.6	48.6	48.6	88	45.2	0	1	90	0.00	30.049 
04:40	48.6	48.6	48.6	88	45.2	0	2	90	0.00	30.048 
04:45	48.6	48.6	48.6	88	45.2	0	2	90	0.00	30.048 
04:50	48.5	48.5	48.5	88	45.1	0	2	90	0.00	30.048 
04:55	48.5	48.5	48.5	88	45.1	1	2	90	0.00	30.047 
05:00	48.5	48.5	48.5	88	45.1	0	2	90	0.00	30.047 
05:05	48.5	48.5	48.5	88	45.1	0	3	90	0.00	30.049 
05:10	48.5	48.5	48.5	88	45.1	0	2	90	0.00	30.050 
05:15	48.3	48.3	48.3	88	44.9	0	1	90	0.00	30.050 
05:20	48.3	48.3	48.3	88	44.9	1	2	90	0.00	30.050 
05:25	48.3	48.3	48.3	88	44.9	1	5	90	0.00	30.049 
05:30	48.3	48.3	48.3	88	44.9	1	2	90	0.00	30.049 
05:35	48.3	48.3	48.3	88	44.9	1	2	90	0.00	30.050 
05:40	48.3	48.3	48.3	89	45.2	1	2	90	0.00	30.050 
05:45	48.5	48.5	48.5	89	45.4	0	1	90	0.00	30.051 
05:50	48.5	48.5	48.5	89	45.4	1	2	90	0.00	30.051 
05:55	48.5	48.5	48.5	89	45.4	1	2	90	0.00	30.050 
06:00	48.5	48.5	48.5	89	45.4	0	1	90	0.00	30.051 
06:05	48.6	48.6	48.6	89	45.5	1	2	90	0.00	30.051 
06:10	48.5	48.5	48.5	89	45.4	0	2	90	0.00	30.050 
06:15	48.5	48.5	48.5	89	45.4	0	1	90	0.00	30.052 
06:20	48.3	48.3	48.3	89	45.2	0	1	90	0.00	30.052 
06:25	48.3	48.3	48.3	89	45.2	0	0	---	0.00	30.055 
06:30	48.2	48.2	48.2	89	45.1	0	1	90	0.00	30.053 
06:35	48.0	48.0	48.0	90	45.2	0	1	90	0.00	30.051 
06:40	47.9	47.9	47.9	90	45.1	0	0	---	0.00	30.051 
06:45	47.9	47.9	47.9	90	45.1	0	1	90	0.00	30.051 
06:50	47.7	47.7	47.7	90	44.9	0	1	90	0.00	30.051 
06:55	47.6	47.6	47.6	90	44.8	0	0	---	0.00	30.053 
07:00	47.6	47.6	47.6	91	45.1	0	0	---	0.00	30.053 
07:05	47.6	47.6	47.6	91	45.1	0	1	90	0.00	30.052 
07:10	47.7	47.7	47.7	92	45.5	0	1	90	0.00	30.051 
07:15	47.9	47.9	47.9	92	45.7	0	1	90	0.00	30.051 
07:20	48.2	48.2	48.2	92	46.0	0	1	90	0.00	30.052 
07:25	48.6	48.6	48.6	91	46.1	0	2	90	0.00	30.053 
07:30	48.9	48.9	48.9	91	46.4	0	2	90	0.00	30.053 
07:35	49.1	49.1	49.1	90	46.3	0	2	90	0.00	30.054 
07:40	49.5	49.5	49.5	89	46.4	1	2	90	0.00	30.053 
07:45	49.8	49.8	49.8	88	46.4	1	3	90	0.00	30.053 
07:50	50.1	50.1	50.1	88	46.7	1	3	90	0.00	30.054 
07:55	50.4	50.4	50.4	87	46.7	1	2	90	0.00	30.053 
08:00	50.8	50.8	50.8	87	47.1	1	2	90	0.00	30.052 
08:05	51.1	51.1	51.1	86	47.1	1	2	90	0.00	30.054 
08:10	51.4	51.4	51.4	85	47.0	0	2	90	0.00	30.054 
08:15	51.7	51.7	51.7	85	47.3	1	3	90	0.00	30.050 
08:20	52.0	52.0	52.0	84	47.3	1	3	90	0.00	30.052 
08:25	52.5	52.5	52.5	84	47.8	0	2	90	0.00	30.051 
08:30	52.9	52.9	52.9	82	47.6	1	2	90	0.00	30.051 
08:35	53.5	53.5	53.5	81	47.8	1	4	90	0.00	30.048 
08:40	54.2	54.2	54.2	79	47.8	1	2	90	0.00	30.045 
08:45	54.8	54.8	54.8	77	47.7	1	3	90	0.00	30.043 
08:50	55.4	55.4	55.4	76	48.0	1	4	90	0.00	30.043 
08:55	56.0	56.0	56.0	74	47.8	2	4	112	0.00	30.043 
09:00	56.7	56.7	56.7	73	48.1	1	3	90	0.00	30.039 
09:05	57.3	57.3	57.3	73	48.7	1	4	112	0.00	30.041 
09:10	58.1	58.1	58.1	70	48.4	1	4	112	0.00	30.039 
09:15	58.7	58.7	58.7	69	48.6	1	2	112	0.00	30.037 
09:20	59.6	59.6	59.6	67	48.6	1	4	112	0.00	30.036 
09:25	60.5	60.5	60.5	64	48.3	1	5	112	0.00	30.036 
09:30	61.5	61.5	61.5	63	48.8	0	3	112	0.00	30.032 
09:35	62.1	62.1	62.1	62	48.9	1	4	112	0.00	30.030 
09:40	62.4	62.4	62.4	62	49.2	1	3	112	0.00	30.029 
09:45	62.7	62.7	62.7	61	49.1	1	4	112	0.00	30.029 
09:50	63.2	63.2	63.2	60	49.1	1	3	112	0.00	30.030 
09:55	63.4	63.4	63.4	60	49.3	2	5	90	0.00	30.031 
10:00	63.7	63.7	63.7	59	49.1	1	4	90	0.00	30.034 
10:05	64.2	64.2	64.2	59	49.6	1	3	112	0.00	30.032 
10:10	64.8	64.8	64.8	59	50.1	2	4	112	0.00	30.028 
10:15	65.3	65.3	65.3	56	49.2	2	6	112	0.00	30.025 
10:20	66.1	66.1	66.1	56	49.9	1	5	90	0.00	30.025 
10:25	67.1	67.1	67.1	54	49.9	1	4	90	0.00	30.021 
10:30	67.9	67.9	67.9	53	50.1	2	5	112	0.00	30.023 
10:35	68.8	68.8	68.8	53	51.0	0	3	112	0.00	30.020 
10:40	69.6	69.6	69.6	49	49.6	1	6	90	0.00	30.018 
10:45	69.9	69.9	69.9	50	50.4	1	4	112	0.00	30.020 
10:50	70.4	70.4	70.4	49	50.3	1	4	112	0.00	30.020 
10:55	70.8	70.8	70.8	48	50.1	2	4	90	0.00	30.016 
11:00	70.9	70.9	70.9	46	49.1	2	5	68	0.00	30.019 
11:05	70.9	70.9	70.9	48	50.2	2	6	68	0.00	30.016 
11:10	71.3	71.3	71.3	47	50.0	1	6	90	0.00	30.020 
11:15	71.6	71.6	71.6	47	50.3	1	4	315	0.00	30.021 
11:20	71.6	71.6	71.6	48	50.9	1	3	248	0.00	30.020 
11:25	72.0	72.0	72.0	46	50.1	1	4	68	0.00	30.015 
11:30	72.1	72.1	72.1	45	49.6	1	3	158	0.00	30.013 
11:35	73.0	73.0	73.0	44	49.8	1	4	338	0.00	30.008 
11:40	73.5	73.5	73.5	43	49.6	2	5	90	0.00	30.008 
11:45	73.9	73.9	73.9	44	50.6	1	4	112	0.00	30.007 
11:50	74.6	74.6	74.6	42	50.0	1	2	0	0.00	30.006 
11:55	74.7	74.7	74.7	42	50.1	1	4	248	0.00	30.001 
12:00	74.9	74.9	74.9	40	48.9	1	6	90	0.00	30.000 
12:05	75.1	75.1	77.5	39	48.4	2	6	90	0.00	29.997 
12:10	75.4	75.4	77.6	40	49.4	1	7	90	0.00	29.994 
12:15	75.4	75.4	77.6	40	49.4	1	4	292	0.00	29.990 
12:20	75.6	75.6	77.7	41	50.2	1	4	0	0.00	29.989 
12:25	76.0	76.0	77.9	42	51.2	0	3	68	0.00	29.989 
12:30	76.3	76.3	78.0	41	50.8	1	3	90	0.00	29.988 
12:35	76.7	76.7	78.1	40	50.5	0	2	0	0.00	29.985 
12:40	76.8	76.8	78.1	39	49.9	1	4	315	0.00	29.981 
12:45	76.7	76.7	78.1	39	49.9	1	3	270	0.00	29.977 
12:50	76.5	76.5	78.0	39	49.7	1	3	248	0.00	29.973 
12:55	76.5	76.5	78.0	40	50.4	1	3	90	0.00	29.973 
13:00	76.7	76.7	78.0	37	48.4	1	4	90	0.00	29.972 
13:05	76.7	76.7	78.1	39	49.9	1	3	248	0.00	29.972 
13:10	76.5	76.5	77.9	37	48.3	1	4	270	0.00	29.970 
13:15	76.5	76.5	78.0	39	49.7	0	3	270	0.00	29.970 
13:20	76.7	76.7	78.1	39	49.9	0	2	248	0.00	29.969 
13:25	76.7	76.7	78.1	39	49.9	1	4	248	0.00	29.966 
13:30	76.5	76.5	77.9	38	49.0	1	5	112	0.00	29.960 
13:35	76.5	76.5	78.0	39	49.7	1	2	112	0.00	29.958 
13:40	76.5	76.5	78.0	39	49.7	0	2	112	0.00	29.958 
13:45	76.5	76.5	78.0	39	49.7	1	3	90	0.00	29.957 
13:50	77.0	77.0	78.2	39	50.1	1	3	90	0.00	29.956 
13:55	77.6	77.6	78.4	37	49.2	2	5	90	0.00	29.950 
14:00	78.1	78.1	78.6	37	49.7	1	3	338	0.00	29.946 
14:05	78.3	78.3	78.8	38	50.6	0	2	338	0.00	29.945 
14:10	78.3	78.3	78.8	38	50.6	1	4	68	0.00	29.943 
14:15	78.1	78.1	78.5	36	48.9	1	3	112	0.00	29.943 
14:20	78.5	78.5	78.6	34	47.8	1	4	270	0.00	29.942 
14:25	78.6	78.6	78.7	35	48.6	1	3	270	0.00	29.941 
14:30	79.0	79.0	78.9	34	48.2	2	5	270	0.00	29.938 
14:35	79.2	79.2	78.9	33	47.6	2	5	270	0.00	29.938 
14:40	78.6	78.6	78.6	33	47.1	1	3	270	0.00	29.936 
14:45	78.3	78.3	78.6	35	48.4	1	4	270	0.00	29.937 
14:50	78.1	78.1	78.5	35	48.2	1	5	248	0.00	29.934 
14:55	77.7	77.7	78.3	35	47.8	1	5	248	0.00	29.931 
15:00	77.6	77.6	78.3	36	48.5	1	4	248	0.00	29.928 
15:05	77.9	77.9	78.4	36	48.8	1	4	90	0.00	29.929 
15:10	78.3	78.3	78.6	35	48.4	0	3	202	0.00	29.928 
15:15	78.8	78.8	78.8	34	48.0	1	2	248	0.00	29.928 
15:20	79.0	79.0	78.8	33	47.4	1	5	68	0.00	29.926 
15:25	78.6	78.6	78.6	33	47.1	2	7	112	0.00	29.926 
15:30	78.1	78.1	78.5	35	48.2	1	3	90	0.00	29.927 
15:35	77.9	77.9	78.4	35	48.0	1	10	270	0.00	29.928 
15:40	77.9	77.9	78.4	35	48.0	0	2	0	0.00	29.926 
15:45	77.9	77.9	78.4	35	48.0	2	6	112	0.00	29.925 
15:50	77.9	77.9	78.3	34	47.2	2	5	112	0.00	29.924 
15:55	77.7	77.7	78.3	35	47.8	2	4	112	0.00	29.923 
16:00	77.4	77.4	78.1	35	47.6	1	3	112	0.00	29.923 
16:05	77.0	77.0	78.0	36	48.0	1	4	270	0.00	29.923 
16:10	76.7	76.7	78.0	37	48.4	1	4	270	0.00	29.924 
16:15	76.5	76.5	77.8	36	47.5	0	3	292	0.00	29.922 
16:20	76.3	76.3	77.7	36	47.4	1	3	270	0.00	29.924 
16:25	76.0	76.0	77.7	37	47.8	1	4	248	0.00	29.921 
16:30	75.8	75.8	77.7	38	48.4	0	1	248	0.00	29.923 
16:35	75.4	75.4	77.5	38	48.0	0	2	248	0.00	29.926 
16:40	75.4	75.4	77.5	38	48.0	0	1	248	0.00	29.925 
16:45	75.4	75.4	77.6	39	48.7	0	1	248	0.00	29.923 
16:50	75.4	75.4	77.5	38	48.0	0	1	248	0.00	29.917 
16:55	75.4	75.4	77.6	39	48.7	0	1	248	0.00	29.916 
17:00	75.4	75.4	77.6	40	49.4	0	1	248	0.00	29.917 
17:05	75.3	75.3	77.6	41	50.0	0	0	---	0.00	29.915 
17:10	75.1	75.1	77.6	42	50.4	0	1	248	0.00	29.918 
17:15	74.7	74.7	74.7	42	50.1	0	1	248	0.00	29.925 
17:20	74.4	74.4	74.4	42	49.8	0	1	248	0.00	29.930 
17:25	74.0	74.0	74.0	42	49.4	0	1	248	0.00	29.931 
17:30	73.5	73.5	73.5	43	49.6	0	0	---	0.00	29.933 
17:35	73.0	73.0	73.0	43	49.2	0	0	---	0.00	29.935 
17:40	72.5	72.5	72.5	44	49.3	0	0	---	0.00	29.934 
17:45	71.8	71.8	71.8	46	49.9	0	0	---	0.00	29.934 
17:50	71.1	71.1	71.1	49	51.0	0	0	---	0.00	29.933 
17:55	70.4	70.4	70.4	49	50.3	0	0	---	0.00	29.933 
18:00	69.8	69.8	69.8	51	50.8	0	0	---	0.00	29.937 
18:05	69.1	69.1	69.1	53	51.2	0	0	---	0.00	29.939 
18:10	68.3	68.3	68.3	55	51.5	0	0	---	0.00	29.940 
18:15	67.8	67.8	67.8	56	51.5	0	0	---	0.00	29.942 
18:20	67.1	67.1	67.1	58	51.8	0	0	---	0.00	29.947 
18:25	66.6	66.6	66.6	58	51.4	0	0	---	0.00	29.951 
18:30	66.1	66.1	66.1	59	51.3	0	0	---	0.00	29.953 
18:35	65.8	65.8	65.8	61	52.0	0	0	---	0.00	29.953 
18:40	65.3	65.3	65.3	62	51.9	0	0	---	0.00	29.952 
18:45	65.0	65.0	65.0	62	51.7	0	0	---	0.00	29.954 
18:50	64.8	64.8	64.8	63	51.9	0	0	---	0.00	29.954 
18:55	64.5	64.5	64.5	64	52.0	0	0	---	0.00	29.956 
19:00	64.3	64.3	64.3	65	52.3	0	0	---	0.00	29.957 
19:05	64.2	64.2	64.2	66	52.6	0	0	---	0.00	29.955 
19:10	64.0	64.0	64.0	65	52.0	0	0	---	0.00	29.956 
19:15	63.7	63.7	63.7	65	51.7	0	0	---	0.00	29.956 
19:20	63.5	63.5	63.5	64	51.1	0	0	---	0.00	29.958 
19:25	63.5	63.5	63.5	65	51.5	0	0	---	0.00	29.955 
19:30	63.4	63.4	63.4	66	51.8	0	0	---	0.00	29.955 
19:35	63.4	63.4	63.4	66	51.8	0	0	---	0.00	29.954 
19:40	63.2	63.2	63.2	67	52.1	0	0	---	0.00	29.954 
19:45	63.2	63.2	63.2	66	51.6	0	0	---	0.00	29.955 
19:50	63.2	63.2	63.2	68	52.5	0	0	---	0.00	29.954 
19:55	63.4	63.4	63.4	67	52.2	0	0	---	0.00	29.952 
20:00	63.4	63.4	63.4	67	52.2	0	0	---	0.00	29.950 
20:05	63.5	63.5	63.5	65	51.5	0	0	---	0.00	29.947 
20:10	63.5	63.5	63.5	65	51.5	0	0	---	0.00	29.947 
20:15	63.5	63.5	63.5	65	51.5	0	0	---	0.00	29.948 
20:20	63.5	63.5	63.5	65	51.5	0	0	---	0.00	29.949 
20:25	63.5	63.5	63.5	65	51.5	0	0	---	0.00	29.949 
20:30	63.7	63.7	63.7	64	51.3	0	1	248	0.00	29.948 
20:35	64.0	64.0	64.0	61	50.3	0	1	248	0.00	29.946 
20:40	64.3	64.3	64.3	60	50.1	0	0	---	0.00	29.946 
20:45	64.7	64.7	64.7	58	49.6	0	1	248	0.00	29.941 
20:50	65.0	65.0	65.0	58	49.9	0	1	248	0.00	29.943 
20:55	65.2	65.2	65.2	58	50.0	0	0	---	0.00	29.945 
21:00	65.2	65.2	65.2	58	50.0	0	0	---	0.00	29.945 
21:05	65.0	65.0	65.0	59	50.3	0	0	---	0.00	29.941 
21:10	64.8	64.8	64.8	60	50.6	0	0	---	0.00	29.940 
21:15	64.5	64.5	64.5	59	49.8	0	1	248	0.00	29.940 
21:20	64.7	64.7	64.7	58	49.6	0	1	248	0.00	29.938 
21:25	64.8	64.8	64.8	58	49.7	0	1	248	0.00	29.936 
21:30	64.8	64.8	64.8	58	49.7	0	0	---	0.00	29.938 
21:35	64.7	64.7	64.7	59	50.0	0	0	---	0.00	29.938 
21:40	64.3	64.3	64.3	59	49.7	0	1	248	0.00	29.938 
21:45	64.2	64.2	64.2	59	49.6	0	1	248	0.00	29.941 
21:50	64.0	64.0	64.0	60	49.8	0	0	---	0.00	29.941 
21:55	63.9	63.9	63.9	60	49.7	0	0	---	0.00	29.940 
22:00	63.7	63.7	63.7	62	50.4	0	0	---	0.00	29.940 
22:05	63.5	63.5	63.5	63	50.7	0	0	---	0.00	29.934 
22:10	63.2	63.2	63.2	63	50.4	0	0	---	0.00	29.935 
22:15	63.2	63.2	63.2	61	49.5	0	1	248	0.00	29.932 
22:20	63.4	63.4	63.4	61	49.7	0	1	248	0.00	29.927 
22:25	63.5	63.5	63.5	60	49.4	0	1	248	0.00	29.925 
22:30	63.9	63.9	63.9	59	49.3	0	1	248	0.00	29.924 
22:35	64.0	64.0	64.0	59	49.4	0	1	225	0.00	29.921 
22:40	64.2	64.2	64.2	59	49.6	0	1	225	0.00	29.921 
22:45	64.3	64.3	64.3	58	49.2	0	1	225	0.00	29.921 
22:50	64.3	64.3	64.3	58	49.2	0	1	202	0.00	29.920 
22:55	64.5	64.5	64.5	58	49.4	0	1	202	0.00	29.919 
23:00	64.5	64.5	64.5	58	49.4	0	1	202	0.00	29.919 
23:05	64.5	64.5	64.5	59	49.8	0	1	202	0.00	29.916 
23:10	64.7	64.7	64.7	58	49.6	0	2	202	0.00	29.915 
23:15	64.8	64.8	64.8	58	49.7	1	3	90	0.00	29.912 
23:20	65.2	65.2	65.2	58	50.0	0	2	90	0.00	29.911 
23:25	65.2	65.2	65.2	58	50.0	0	1	90	0.00	29.910 
23:30	65.3	65.3	65.3	58	50.1	0	2	90	0.00	29.907 
23:35	65.3	65.3	65.3	57	49.7	0	3	90	0.00	29.906 
23:40	65.3	65.3	65.3	58	50.1	0	1	90	0.00	29.908 
23:45	65.2	65.2	65.2	59	50.5	0	1	90	0.00	29.907 
23:50	65.0	65.0	65.0	58	49.9	0	3	90	0.00	29.907 
23:55	65.0	65.0	65.0	58	49.9	0	1	90	0.00	29.907 

CoCoRaHS
IN-AL-39
A2 Web Hosting
Creative Commons License
GoDaddy
Look for:

loaded 2017-12-13 09:41:58 • last modified 2010-11-18 10:43:29
Privacy PolicyDisclaimer
• wx.awcolley.com is powered by PmWiki v.2002016 •
• all content (unless otherwise noted) © 2017 A W Colley